North Billerica, Massachusetts
Current Conditions -  °F | °C
As of 3:56 PM on Thursday 20 Nov 2014 (Local Time) from KBED Reporting Station
Scattered Clouds Scattered Clouds  
Wind Chill: 36°   Ceiling: Unl
Heat Index: 41°   Visibility: 10mi
Dew Point: 16°   Wind: 8mph
Humidity: 36%   Direction: 280°W
Pressure: 29.76"   Gusts: NA
Location:  42.58°N, 71.28°W
Report Text: KBED 202056Z 28007KT 10SM SCT065 05/M09 A2976 RMK AO2 SLP092 T00501089 55000
Loading
Personal Weather Stations






























Interactive Weather Map New forecast layout! Learn more

10-Day Weather Forecast

Advertisements
Track Severe Weather on mobile